Time,TemperatureF,DewpointF,PressureIn,WindDirection,WindDirectionDegrees,WindSpeedMPH,WindSpeedGustMPH,Humidity,HourlyPrecipIn,Conditions,Clouds,dailyrainin,SoftwareType,DateUTC
2013-06-04 00:01:00,59.5,46.1,29.82,West,260,3.0,3.0,61,0.00,,SCT095,0.54,VWS V14.00,2013-06-04 04:01:00,
2013-06-04 00:07:00,59.3,45.9,29.82,WNW,293,1.0,1.0,61,0.00,,SCT095,0.00,VWS V14.00,2013-06-04 04:07:00,
2013-06-04 00:12:00,59.2,45.8,29.82,WNW,298,0.0,0.0,61,0.00,,SCT095,0.00,VWS V14.00,2013-06-04 04:12:00,
2013-06-04 00:17:00,59.0,45.6,29.82,WNW,301,3.0,3.0,61,0.00,,SCT095,0.00,VWS V14.00,2013-06-04 04:17:00,
2013-06-04 00:22:00,58.7,44.9,29.82,WNW,291,2.0,5.0,60,0.00,,SCT095,0.00,VWS V14.00,2013-06-04 04:22:00,
2013-06-04 00:27:00,58.6,44.8,29.82,WNW,294,0.0,2.0,60,0.00,,SCT095,0.00,VWS V14.00,2013-06-04 04:27:00,
2013-06-04 00:32:00,58.4,44.6,29.83,WNW,294,1.0,2.0,60,0.00,,SCT095,0.00,VWS V14.00,2013-06-04 04:32:00,
2013-06-04 00:37:00,58.3,44.5,29.83,WNW,294,0.0,0.0,60,0.00,,SCT095,0.00,VWS V14.00,2013-06-04 04:37:00,
2013-06-04 00:42:00,58.3,44.5,29.83,WNW,294,0.0,0.0,60,0.00,,SCT095,0.00,VWS V14.00,2013-06-04 04:42:00,
2013-06-04 00:47:00,58.1,44.7,29.83,WNW,294,1.0,2.0,61,0.00,,SCT095,0.00,VWS V14.00,2013-06-04 04:47:00,
2013-06-04 00:52:00,58.0,44.6,29.83,WNW,294,0.0,2.0,61,0.00,,SCT095,0.00,VWS V14.00,2013-06-04 04:52:00,
2013-06-04 00:57:00,57.5,43.7,29.83,North,350,3.0,3.0,60,0.00,,SCT095,0.00,VWS V14.00,2013-06-04 04:57:00,
2013-06-04 01:02:00,57.0,43.3,29.83,WNW,294,6.0,10.0,60,0.00,,SCT095,0.00,VWS V14.00,2013-06-04 05:02:00,
2013-06-04 01:07:00,56.6,42.5,29.83,West,273,2.0,6.0,59,0.00,,FEW075,0.00,VWS V14.00,2013-06-04 05:07:00,
2013-06-04 01:12:00,56.5,42.4,29.83,WNW,286,6.0,6.0,59,0.00,,FEW075,0.00,VWS V14.00,2013-06-04 05:12:00,
2013-06-04 01:17:00,56.3,42.2,29.83,NNE,22,0.0,7.0,59,0.00,,FEW075,0.00,VWS V14.00,2013-06-04 05:17:00,
2013-06-04 01:22:00,56.0,42.3,29.83,North,10,2.0,8.0,60,0.00,,FEW075,0.00,VWS V14.00,2013-06-04 05:22:00,
2013-06-04 01:27:00,56.0,42.3,29.83,NW,313,3.0,9.0,60,0.00,,FEW075,0.00,VWS V14.00,2013-06-04 05:27:00,
2013-06-04 01:32:00,55.7,42.0,29.83,NW,319,0.0,5.0,60,0.00,,FEW075,0.00,VWS V14.00,2013-06-04 05:32:00,
2013-06-04 01:37:00,55.6,42.4,29.83,NNW,343,2.0,7.0,61,0.00,,FEW075,0.00,VWS V14.00,2013-06-04 05:37:00,
2013-06-04 01:42:00,55.4,42.2,29.83,NW,316,1.0,4.0,61,0.00,,FEW075,0.00,VWS V14.00,2013-06-04 05:42:00,
2013-06-04 01:47:00,55.3,41.7,29.84,North,5,3.0,6.0,60,0.00,,CLR,0.00,VWS V14.00,2013-06-04 05:47:00,
2013-06-04 01:52:00,55.1,41.5,29.84,WNW,292,6.0,6.0,60,0.00,,CLR,0.00,VWS V14.00,2013-06-04 05:52:00,
2013-06-04 01:57:00,55.0,41.4,29.84,WNW,300,2.0,3.0,60,0.00,,CLR,0.00,VWS V14.00,2013-06-04 05:57:00,
2013-06-04 02:02:00,55.0,41.4,29.84,WNW,299,0.0,1.0,60,0.00,,CLR,0.00,VWS V14.00,2013-06-04 06:02:00,
2013-06-04 02:07:00,54.8,41.2,29.84,WNW,303,2.0,4.0,60,0.00,,CLR,0.00,VWS V14.00,2013-06-04 06:07:00,
2013-06-04 02:12:00,54.7,40.7,29.84,NW,309,0.0,2.0,59,0.00,,CLR,0.00,VWS V14.00,2013-06-04 06:12:00,
2013-06-04 02:17:00,54.5,40.0,29.84,NW,318,2.0,5.0,58,0.00,,CLR,0.00,VWS V14.00,2013-06-04 06:17:00,
2013-06-04 02:22:00,54.4,40.0,29.84,WNW,286,1.0,3.0,58,0.00,,CLR,0.00,VWS V14.00,2013-06-04 06:22:00,
2013-06-04 02:27:00,54.4,39.5,29.84,NNE,15,5.0,8.0,57,0.00,,CLR,0.00,VWS V14.00,2013-06-04 06:27:00,
2013-06-04 02:32:00,54.4,39.5,29.85,WNW,303,8.0,8.0,57,0.00,,CLR,0.00,VWS V14.00,2013-06-04 06:32:00,
2013-06-04 02:37:00,54.2,39.3,29.85,WNW,290,1.0,4.0,57,0.00,,CLR,0.00,VWS V14.00,2013-06-04 06:37:00,
2013-06-04 02:42:00,54.2,39.3,29.85,WNW,301,1.0,3.0,57,0.00,,CLR,0.00,VWS V14.00,2013-06-04 06:42:00,
2013-06-04 02:47:00,54.2,39.3,29.85,WNW,290,1.0,4.0,57,0.00,,CLR,0.00,VWS V14.00,2013-06-04 06:47:00,
2013-06-04 02:52:00,54.2,39.3,29.85,NW,310,1.0,5.0,57,0.00,,CLR,0.00,VWS V14.00,2013-06-04 06:52:00,
2013-06-04 02:57:00,54.2,38.9,29.85,NW,304,2.0,6.0,56,0.00,,CLR,0.00,VWS V14.00,2013-06-04 06:57:00,
2013-06-04 03:02:00,54.2,39.3,29.84,North,355,2.0,5.0,57,0.00,,CLR,0.00,VWS V14.00,2013-06-04 07:02:00,
2013-06-04 03:08:00,54.2,39.3,29.84,NNW,342,1.0,2.0,57,0.00,,CLR,0.00,VWS V14.00,2013-06-04 07:08:00,
2013-06-04 03:13:00,54.1,39.7,29.84,WNW,297,4.0,6.0,58,0.00,,CLR,0.00,VWS V14.00,2013-06-04 07:13:00,
2013-06-04 03:18:00,54.1,39.7,29.84,NW,315,5.0,6.0,58,0.00,,CLR,0.00,VWS V14.00,2013-06-04 07:18:00,
2013-06-04 03:23:00,53.9,39.5,29.84,NW,306,4.0,7.0,58,0.00,,CLR,0.00,VWS V14.00,2013-06-04 07:23:00,
2013-06-04 03:28:00,53.9,39.5,29.84,WNW,298,1.0,1.0,58,0.00,,CLR,0.00,VWS V14.00,2013-06-04 07:28:00,
2013-06-04 03:33:00,53.8,39.4,29.84,NW,314,2.0,5.0,58,0.00,,CLR,0.00,VWS V14.00,2013-06-04 07:33:00,
2013-06-04 03:38:00,53.6,39.6,29.84,WNW,290,3.0,3.0,59,0.00,,CLR,0.00,VWS V14.00,2013-06-04 07:38:00,
2013-06-04 03:43:00,53.6,39.6,29.84,WNW,290,4.0,10.0,59,0.00,,CLR,0.00,VWS V14.00,2013-06-04 07:43:00,
2013-06-04 03:48:00,53.5,39.5,29.84,West,274,2.0,4.0,59,0.00,,CLR,0.00,VWS V14.00,2013-06-04 07:48:00,
2013-06-04 03:53:00,53.5,40.0,29.84,NW,309,1.0,2.0,60,0.00,,CLR,0.00,VWS V14.00,2013-06-04 07:53:00,
2013-06-04 03:58:00,53.3,39.8,29.84,NW,311,4.0,5.0,60,0.00,,CLR,0.00,VWS V14.00,2013-06-04 07:58:00,
2013-06-04 04:03:00,53.2,39.7,29.84,North,9,2.0,4.0,60,0.00,,CLR,0.00,VWS V14.00,2013-06-04 08:03:00,